createdAt,value
2022-07-30T00:01:46.322Z,3.40
2022-07-30T00:04:14.017Z,3.40
2022-07-30T00:06:41.783Z,4.10
2022-07-30T00:09:09.419Z,3.38
2022-07-30T00:11:37.069Z,3.80
2022-07-30T00:14:04.921Z,3.53
2022-07-30T00:16:32.666Z,3.42
2022-07-30T00:19:00.433Z,3.75
2022-07-30T00:21:38.801Z,3.50
2022-07-30T00:24:08.940Z,3.13
2022-07-30T00:26:36.778Z,3.13
2022-07-30T00:29:05.220Z,3.70
2022-07-30T00:31:33.053Z,3.30
2022-07-30T00:34:00.731Z,3.20
2022-07-30T00:36:28.536Z,3.13
2022-07-30T00:38:56.251Z,3.30
2022-07-30T00:41:24.142Z,3.53
2022-07-30T00:43:52.168Z,3.42
2022-07-30T00:46:19.940Z,3.60
2022-07-30T00:48:47.761Z,3.67
2022-07-30T00:51:15.426Z,3.72
2022-07-30T00:53:43.063Z,4.03
2022-07-30T00:56:10.710Z,3.83
2022-07-30T00:58:38.303Z,3.97
2022-07-30T01:01:06.034Z,4.72
2022-07-30T01:03:33.665Z,4.70
2022-07-30T01:06:01.297Z,4.43
2022-07-30T01:08:28.884Z,4.38
2022-07-30T01:10:56.511Z,4.97
2022-07-30T01:13:24.326Z,4.85
2022-07-30T01:15:52.057Z,4.50
2022-07-30T01:18:20.255Z,4.45
2022-07-30T01:21:01.167Z,5.15
2022-07-30T01:23:36.259Z,5.30
2022-07-30T01:26:11.250Z,4.90
2022-07-30T01:28:46.861Z,4.43
2022-07-30T01:31:16.263Z,4.88
2022-07-30T01:33:46.908Z,5.65
2022-07-30T01:36:17.434Z,4.35
2022-07-30T01:38:50.513Z,5.20
2022-07-30T01:41:19.946Z,4.80
2022-07-30T01:43:48.444Z,5.53
2022-07-30T01:46:18.032Z,5.30
2022-07-30T01:48:48.977Z,4.75
2022-07-30T01:51:19.641Z,5.47
2022-07-30T01:53:51.829Z,4.70
2022-07-30T01:56:24.841Z,4.93
2022-07-30T01:58:56.279Z,5.90
2022-07-30T02:01:28.890Z,5.35
2022-07-30T02:04:03.510Z,5.63
2022-07-30T02:07:01.899Z,5.13
2022-07-30T02:09:35.441Z,5.40
2022-07-30T02:12:30.472Z,5.75
2022-07-30T02:15:24.190Z,5.13
2022-07-30T02:18:04.955Z,5.13
2022-07-30T02:20:35.741Z,5.20
2022-07-30T02:23:08.141Z,5.13
2022-07-30T02:25:39.153Z,5.25
2022-07-30T02:28:11.968Z,5.20
2022-07-30T02:30:55.081Z,5.35
2022-07-30T02:33:26.773Z,4.70
2022-07-30T02:35:56.160Z,5.43
2022-07-30T02:38:25.811Z,4.35
2022-07-30T02:40:55.859Z,5.43
2022-07-30T02:43:26.556Z,4.95
2022-07-30T02:45:54.656Z,4.28
2022-07-30T02:48:35.157Z,4.15
2022-07-30T02:51:05.650Z,3.70
2022-07-30T02:53:34.648Z,4.70
2022-07-30T02:56:03.553Z,4.15
2022-07-30T02:58:34.856Z,4.00
2022-07-30T03:01:04.025Z,4.28
2022-07-30T03:03:33.129Z,3.97
2022-07-30T03:06:02.770Z,4.00
2022-07-30T03:08:33.521Z,4.50
2022-07-30T03:11:01.925Z,3.90
2022-07-30T03:13:29.977Z,4.10
2022-07-30T03:15:59.586Z,3.85
2022-07-30T03:18:32.116Z,4.95
2022-07-30T03:21:00.946Z,4.57
2022-07-30T03:23:30.106Z,4.63
2022-07-30T03:26:05.365Z,4.18
2022-07-30T03:28:36.725Z,4.78
2022-07-30T03:31:05.700Z,4.45
2022-07-30T03:33:38.884Z,4.65
2022-07-30T03:38:49.184Z,4.40
2022-07-30T03:41:17.559Z,4.30
2022-07-30T03:43:47.089Z,4.10
2022-07-30T03:46:16.063Z,4.00
2022-07-30T03:48:47.592Z,4.20
2022-07-30T03:51:16.621Z,4.55
2022-07-30T03:53:45.363Z,4.40
2022-07-30T03:56:42.689Z,3.90
2022-07-30T03:59:14.358Z,4.10
2022-07-30T04:01:41.851Z,4.50
2022-07-30T04:04:22.121Z,4.45
2022-07-30T04:06:49.995Z,3.88
2022-07-30T04:09:19.549Z,3.90
2022-07-30T04:11:47.820Z,3.50
2022-07-30T04:14:17.531Z,3.78
2022-07-30T04:16:54.920Z,4.40
2022-07-30T04:19:36.830Z,3.63
2022-07-30T04:22:06.405Z,3.83
2022-07-30T04:24:36.222Z,4.38
2022-07-30T04:27:05.035Z,3.97
2022-07-30T04:29:32.529Z,3.95
2022-07-30T04:32:00.126Z,4.10
2022-07-30T04:34:50.926Z,4.45
2022-07-30T04:37:27.658Z,4.38
2022-07-30T04:39:57.832Z,3.65
2022-07-30T04:42:26.438Z,4.15
2022-07-30T04:45:05.531Z,4.30
2022-07-30T04:47:48.085Z,4.43
2022-07-30T04:50:38.646Z,5.30
2022-07-30T04:53:09.723Z,5.03
2022-07-30T04:55:42.956Z,4.90
2022-07-30T04:58:12.332Z,4.30
2022-07-30T05:00:41.860Z,4.95
2022-07-30T05:03:15.273Z,5.15
2022-07-30T05:05:48.519Z,4.93
2022-07-30T05:08:16.102Z,4.82
2022-07-30T05:10:44.815Z,5.35
2022-07-30T05:13:14.377Z,4.35
2022-07-30T05:15:44.764Z,4.05
2022-07-30T05:18:14.050Z,4.57
2022-07-30T05:20:43.718Z,4.70
2022-07-30T05:23:20.415Z,3.67
2022-07-30T05:25:58.251Z,4.30
2022-07-30T05:28:31.748Z,5.50
2022-07-30T05:31:08.750Z,5.00
2022-07-30T05:33:41.273Z,4.68
2022-07-30T05:36:13.064Z,5.43
2022-07-30T05:38:41.007Z,5.22
2022-07-30T05:41:35.273Z,6.03
2022-07-30T05:44:07.286Z,5.35
2022-07-30T05:46:34.777Z,6.35
2022-07-30T05:49:01.976Z,6.03
2022-07-30T05:51:29.483Z,5.30
2022-07-30T05:53:56.628Z,5.63
2022-07-30T05:56:42.520Z,6.05
2022-07-30T05:59:29.234Z,5.53
2022-07-30T06:02:08.774Z,5.22
2022-07-30T06:04:58.928Z,4.60
2022-07-30T06:07:26.728Z,4.45
2022-07-30T06:10:00.303Z,5.10
2022-07-30T06:12:29.540Z,4.70
2022-07-30T06:14:58.117Z,5.10
2022-07-30T06:17:41.181Z,5.00
2022-07-30T06:20:32.028Z,4.30
2022-07-30T06:23:17.227Z,4.60
2022-07-30T06:26:03.019Z,4.85
2022-07-30T06:28:38.961Z,5.00
2022-07-30T06:31:16.587Z,4.88
2022-07-30T06:33:43.860Z,4.80
2022-07-30T06:36:13.900Z,4.20
2022-07-30T06:38:58.082Z,4.50
2022-07-30T06:41:39.448Z,3.97
2022-07-30T06:44:06.680Z,3.88
2022-07-30T06:46:53.968Z,4.43
2022-07-30T06:49:25.462Z,4.22
2022-07-30T06:51:52.797Z,4.50
2022-07-30T06:54:20.002Z,4.50
2022-07-30T06:57:13.296Z,4.65
2022-07-30T06:59:56.999Z,3.70
2022-07-30T07:02:45.004Z,3.72
2022-07-30T07:05:13.961Z,4.00
2022-07-30T07:07:56.453Z,4.03
2022-07-30T07:10:28.973Z,3.75
2022-07-30T07:13:11.011Z,3.60
2022-07-30T07:15:38.376Z,3.95
2022-07-30T07:18:09.803Z,3.72
2022-07-30T07:20:39.372Z,3.20
2022-07-30T07:23:12.131Z,3.60
2022-07-30T07:25:41.412Z,3.20
2022-07-30T07:28:11.680Z,3.03
2022-07-30T07:30:44.386Z,3.08
2022-07-30T07:33:13.402Z,3.28
2022-07-30T07:35:49.130Z,3.45
2022-07-30T07:38:29.071Z,3.17
2022-07-30T07:40:57.857Z,3.25
2022-07-30T07:43:25.388Z,3.67
2022-07-30T07:45:55.683Z,3.47
2022-07-30T07:48:23.186Z,3.03
2022-07-30T07:50:59.771Z,3.20
2022-07-30T07:53:29.994Z,3.58
2022-07-30T07:55:57.824Z,3.40
2022-07-30T07:58:26.409Z,3.08
2022-07-30T08:00:57.902Z,3.30
2022-07-30T08:03:45.232Z,3.42
2022-07-30T08:06:32.365Z,3.05
2022-07-30T08:09:43.750Z,3.22
2022-07-30T08:12:44.318Z,3.20
2022-07-30T08:15:31.452Z,3.13
2022-07-30T08:18:20.102Z,3.00
2022-07-30T08:21:05.988Z,3.40
2022-07-30T08:23:34.874Z,2.97
2022-07-30T08:26:02.202Z,3.20
2022-07-30T08:28:35.861Z,3.22
2022-07-30T08:31:05.197Z,3.22
2022-07-30T08:33:32.299Z,3.17
2022-07-30T08:36:04.014Z,3.10
2022-07-30T08:38:33.152Z,3.00
2022-07-30T08:41:00.352Z,3.28
2022-07-30T08:43:28.771Z,3.08
2022-07-30T08:45:58.966Z,3.50
2022-07-30T08:48:42.464Z,3.45
2022-07-30T08:51:12.979Z,3.00
2022-07-30T08:53:44.573Z,3.08
2022-07-30T08:56:12.574Z,3.00
2022-07-30T08:58:40.033Z,3.30
2022-07-30T09:01:07.543Z,3.30
2022-07-30T09:03:43.977Z,3.33
2022-07-30T09:06:12.271Z,3.17
2022-07-30T09:08:39.721Z,3.30
2022-07-30T09:11:07.173Z,2.78
2022-07-30T09:13:41.894Z,3.00
2022-07-30T09:16:28.033Z,2.90
2022-07-30T09:19:15.973Z,2.85
2022-07-30T09:21:54.863Z,3.03
2022-07-30T09:24:26.362Z,2.92
2022-07-30T09:27:00.324Z,2.90
2022-07-30T09:29:57.355Z,3.13
2022-07-30T09:32:54.695Z,2.88
2022-07-30T09:35:41.357Z,2.88
2022-07-30T09:38:12.790Z,3.28
2022-07-30T09:41:02.176Z,3.03
2022-07-30T09:43:51.939Z,3.22
2022-07-30T09:46:51.792Z,3.40
2022-07-30T09:49:29.331Z,2.92
2022-07-30T09:51:57.907Z,3.33
2022-07-30T09:54:51.400Z,3.00
2022-07-30T09:57:27.352Z,3.17
2022-07-30T10:00:23.714Z,2.75
2022-07-30T10:03:33.328Z,2.90
2022-07-30T10:06:33.053Z,3.10
2022-07-30T10:09:01.777Z,3.17
2022-07-30T10:11:41.707Z,2.90
2022-07-30T10:14:09.663Z,2.95
2022-07-30T10:16:37.070Z,3.10
2022-07-30T10:19:07.213Z,2.80
2022-07-30T10:22:17.021Z,2.55
2022-07-30T10:25:05.246Z,2.80
2022-07-30T10:27:51.806Z,2.80
2022-07-30T10:30:29.277Z,2.55
2022-07-30T10:33:00.108Z,2.70
2022-07-30T10:35:34.347Z,2.85
2022-07-30T10:38:13.542Z,2.50
2022-07-30T10:40:58.788Z,2.65
2022-07-30T10:43:44.663Z,3.30
2022-07-30T10:46:27.086Z,2.50
2022-07-30T10:48:55.789Z,2.60
2022-07-30T10:51:43.904Z,2.80
2022-07-30T10:54:45.483Z,2.72
2022-07-30T10:57:26.569Z,2.38
2022-07-30T11:00:00.838Z,2.47
2022-07-30T11:02:35.514Z,2.33
2022-07-30T11:05:27.225Z,2.40
2022-07-30T11:08:36.429Z,2.28
2022-07-30T11:12:00.993Z,2.30
2022-07-30T11:14:48.212Z,2.55
2022-07-30T11:17:19.881Z,2.40
2022-07-30T11:20:06.799Z,2.45
2022-07-30T11:22:51.009Z,2.40
2022-07-30T11:25:51.485Z,2.28
2022-07-30T11:28:49.874Z,2.40
2022-07-30T11:31:58.542Z,2.35
2022-07-30T11:34:25.709Z,2.33
2022-07-30T11:37:21.634Z,2.28
2022-07-30T11:39:56.800Z,2.10
2022-07-30T11:42:30.779Z,2.17
2022-07-30T11:45:18.505Z,2.20
2022-07-30T11:47:51.046Z,2.20
2022-07-30T11:50:28.572Z,2.30
2022-07-30T11:53:01.773Z,2.05
2022-07-30T11:55:32.869Z,2.22
2022-07-30T11:58:02.367Z,2.20
2022-07-30T12:00:41.525Z,2.30
2022-07-30T12:03:13.941Z,2.30
2022-07-30T12:05:42.146Z,2.35
2022-07-30T12:08:33.356Z,2.50
2022-07-30T12:11:00.523Z,2.50
2022-07-30T12:13:44.213Z,2.40
2022-07-30T12:16:17.711Z,2.17
2022-07-30T12:18:46.016Z,2.40
2022-07-30T12:21:15.781Z,2.63
2022-07-30T12:23:53.294Z,2.50
2022-07-30T12:26:22.508Z,2.30
2022-07-30T12:28:49.825Z,2.40
2022-07-30T12:31:17.577Z,2.50
2022-07-30T12:33:44.830Z,2.10
2022-07-30T12:36:34.227Z,2.42
2022-07-30T12:39:03.532Z,2.15
2022-07-30T12:41:45.149Z,2.50
2022-07-30T12:44:39.537Z,2.20
2022-07-30T12:47:20.175Z,2.22
2022-07-30T12:49:49.879Z,2.50
2022-07-30T12:52:29.433Z,2.30
2022-07-30T12:55:12.708Z,2.35
2022-07-30T12:58:05.464Z,2.25
2022-07-30T13:00:51.087Z,2.30
2022-07-30T13:03:29.563Z,2.22
2022-07-30T13:05:57.475Z,2.03
2022-07-30T13:08:47.698Z,2.38
2022-07-30T13:11:16.329Z,2.33
2022-07-30T13:13:43.540Z,2.10
2022-07-30T13:16:10.805Z,1.90
2022-07-30T13:18:38.405Z,1.90
2022-07-30T13:21:09.157Z,1.90
2022-07-30T13:23:38.971Z,1.90
2022-07-30T13:26:08.513Z,1.92
2022-07-30T13:28:36.798Z,1.80
2022-07-30T13:31:04.534Z,1.10
2022-07-30T13:33:31.879Z,1.90
2022-07-30T13:35:59.332Z,1.80
2022-07-30T13:38:27.245Z,1.73
2022-07-30T13:40:56.997Z,2.00
2022-07-30T13:43:27.712Z,1.70
2022-07-30T13:45:54.909Z,1.80
2022-07-30T13:48:27.039Z,1.85
2022-07-30T13:50:54.151Z,1.73
2022-07-30T13:53:21.381Z,1.90
2022-07-30T13:55:48.620Z,2.00
2022-07-30T13:58:15.806Z,1.92
2022-07-30T14:00:45.256Z,2.08
2022-07-30T14:03:12.804Z,2.00
2022-07-30T14:05:42.016Z,1.88
2022-07-30T14:08:10.866Z,2.10
2022-07-30T14:10:39.812Z,2.05
2022-07-30T14:13:08.340Z,1.80
2022-07-30T14:15:35.795Z,1.70
2022-07-30T14:18:03.532Z,1.70
2022-07-30T14:20:30.756Z,1.80
2022-07-30T14:22:58.007Z,1.95
2022-07-30T14:25:25.382Z,1.98
2022-07-30T14:27:52.585Z,1.90
2022-07-30T14:30:20.335Z,1.80
2022-07-30T14:32:47.564Z,2.00
2022-07-30T14:35:14.638Z,1.83
2022-07-30T14:37:41.913Z,2.00
2022-07-30T14:40:11.982Z,2.00
2022-07-30T14:42:40.205Z,2.33
2022-07-30T14:45:09.154Z,1.83
2022-07-30T14:47:36.597Z,2.22
2022-07-30T14:50:04.578Z,2.10
2022-07-30T14:52:35.125Z,1.70
2022-07-30T14:55:03.821Z,2.08
2022-07-30T14:57:31.216Z,1.98
2022-07-30T14:59:58.392Z,1.98
2022-07-30T15:02:25.492Z,2.00
2022-07-30T15:04:52.594Z,2.30
2022-07-30T15:07:19.756Z,2.30
2022-07-30T15:09:46.899Z,2.10
2022-07-30T15:12:23.354Z,2.08
2022-07-30T15:14:53.851Z,2.20
2022-07-30T15:17:21.031Z,2.10
2022-07-30T15:19:50.809Z,2.00
2022-07-30T15:22:19.687Z,2.00
2022-07-30T15:24:46.898Z,2.00
2022-07-30T15:27:14.017Z,1.83
2022-07-30T15:29:41.299Z,1.95
2022-07-30T15:32:08.550Z,1.95
2022-07-30T15:34:35.793Z,2.20
2022-07-30T15:37:05.539Z,2.20
2022-07-30T15:39:33.908Z,1.92
2022-07-30T15:42:02.629Z,2.13
2022-07-30T15:44:30.012Z,2.13
2022-07-30T15:46:57.317Z,2.10
2022-07-30T15:49:24.658Z,2.05
2022-07-30T15:51:52.142Z,2.00
2022-07-30T15:54:23.067Z,2.00
2022-07-30T15:56:54.336Z,2.40
2022-07-30T15:59:29.226Z,2.33
2022-07-30T16:01:56.602Z,2.92
2022-07-30T16:04:31.241Z,2.55
2022-07-30T16:07:02.095Z,2.25
2022-07-30T16:09:29.407Z,2.30
2022-07-30T16:11:57.426Z,2.20
2022-07-30T16:14:26.229Z,2.40
2022-07-30T16:16:53.334Z,2.30
2022-07-30T16:19:20.484Z,2.70
2022-07-30T16:21:47.613Z,2.13
2022-07-30T16:24:14.820Z,2.40
2022-07-30T16:26:42.032Z,2.30
2022-07-30T16:29:13.711Z,2.35
2022-07-30T16:31:41.243Z,2.40
2022-07-30T16:34:08.520Z,2.05
2022-07-30T16:36:35.689Z,2.10
2022-07-30T16:39:02.928Z,2.58
2022-07-30T16:41:30.051Z,1.95
2022-07-30T16:43:57.190Z,2.10
2022-07-30T16:46:24.763Z,2.00
2022-07-30T16:48:51.992Z,2.35
2022-07-30T16:51:19.642Z,2.10
2022-07-30T16:53:48.791Z,2.25
2022-07-30T16:56:16.906Z,2.30
2022-07-30T16:58:44.073Z,2.42
2022-07-30T17:01:11.378Z,2.30
2022-07-30T17:03:38.549Z,2.33
2022-07-30T17:06:05.900Z,2.60
2022-07-30T17:08:33.171Z,2.40
2022-07-30T17:11:00.628Z,2.50
2022-07-30T17:13:28.427Z,2.08
2022-07-30T17:15:55.613Z,2.20
2022-07-30T17:18:22.669Z,2.13
2022-07-30T17:20:49.801Z,2.72
2022-07-30T17:23:16.957Z,2.30
2022-07-30T17:25:44.053Z,2.50
2022-07-30T17:28:11.191Z,2.55
2022-07-30T17:30:38.324Z,2.33
2022-07-30T17:33:06.495Z,2.40
2022-07-30T17:35:34.201Z,2.25
2022-07-30T17:38:01.498Z,2.40
2022-07-30T17:40:31.405Z,2.30
2022-07-30T17:43:04.071Z,2.30
2022-07-30T17:45:32.948Z,2.42
2022-07-30T17:48:01.820Z,2.50
2022-07-30T17:50:32.485Z,2.30
2022-07-30T17:53:00.419Z,2.13
2022-07-30T17:55:31.665Z,2.67
2022-07-30T17:57:58.723Z,2.15
2022-07-30T18:00:25.996Z,2.40
2022-07-30T18:02:53.153Z,2.40
2022-07-30T18:05:20.286Z,2.40
2022-07-30T18:07:47.449Z,2.28
2022-07-30T18:10:14.705Z,2.38
2022-07-30T18:12:48.887Z,2.33
2022-07-30T18:15:17.943Z,2.33
2022-07-30T18:17:45.313Z,2.58
2022-07-30T18:20:12.995Z,2.40
2022-07-30T18:22:40.648Z,2.33
2022-07-30T18:25:16.539Z,2.30
2022-07-30T18:27:47.400Z,2.60
2022-07-30T18:30:14.791Z,2.25
2022-07-30T18:32:41.982Z,2.35
2022-07-30T18:35:13.865Z,2.33
2022-07-30T18:37:42.809Z,2.13
2022-07-30T18:40:12.010Z,2.22
2022-07-30T18:42:39.481Z,2.47
2022-07-30T18:45:07.149Z,2.20
2022-07-30T18:47:34.827Z,2.20
2022-07-30T18:50:02.245Z,2.50
2022-07-30T18:52:29.473Z,2.22
2022-07-30T18:54:56.640Z,2.25
2022-07-30T18:57:23.750Z,2.30
2022-07-30T18:59:51.019Z,2.47
2022-07-30T19:02:18.160Z,2.38
2022-07-30T19:04:45.417Z,2.47
2022-07-30T19:07:12.608Z,2.13
2022-07-30T19:09:39.763Z,1.90
2022-07-30T19:12:07.468Z,2.30
2022-07-30T19:14:34.931Z,2.10
2022-07-30T19:17:01.987Z,2.50
2022-07-30T19:19:29.766Z,2.10
2022-07-30T19:21:57.106Z,2.30
2022-07-30T19:24:27.025Z,2.20
2022-07-30T19:26:56.064Z,2.22
2022-07-30T19:29:23.592Z,2.50
2022-07-30T19:31:50.653Z,2.10
2022-07-30T19:34:17.798Z,2.35
2022-07-30T19:36:45.048Z,2.30
2022-07-30T19:39:15.909Z,2.40
2022-07-30T19:41:50.877Z,1.95
2022-07-30T19:44:18.595Z,2.00
2022-07-30T19:46:46.726Z,2.20
2022-07-30T19:49:17.378Z,2.10
2022-07-30T19:52:10.445Z,2.10
2022-07-30T19:54:34.474Z,2.40
2022-07-30T19:57:04.428Z,2.22
2022-07-30T20:02:18.592Z,2.10
2022-07-30T20:04:45.819Z,2.40
2022-07-30T20:07:13.065Z,2.00
2022-07-30T20:09:42.734Z,2.33
2022-07-30T20:12:10.219Z,2.25
2022-07-30T20:14:37.410Z,2.35
2022-07-30T20:17:10.668Z,2.22
2022-07-30T20:19:38.035Z,2.30
2022-07-30T20:22:05.171Z,2.22
2022-07-30T20:24:34.018Z,2.38
2022-07-30T20:27:35.283Z,2.42
2022-07-30T20:29:49.231Z,2.80
2022-07-30T20:32:17.590Z,2.28
2022-07-30T20:34:44.728Z,2.38
2022-07-30T20:37:16.606Z,2.20
2022-07-30T20:39:49.677Z,2.17
2022-07-30T20:42:17.105Z,2.30
2022-07-30T20:44:50.522Z,2.20
2022-07-30T20:47:33.414Z,2.20
2022-07-30T20:50:02.276Z,2.22
2022-07-30T20:52:29.950Z,2.22
2022-07-30T20:54:57.141Z,2.50
2022-07-30T20:57:44.305Z,2.38
2022-07-30T21:00:12.232Z,2.28
2022-07-30T21:02:39.615Z,2.20
2022-07-30T21:05:07.074Z,2.45
2022-07-30T21:07:36.812Z,2.58
2022-07-30T21:10:04.843Z,2.80
2022-07-30T21:12:36.456Z,2.50
2022-07-30T21:15:04.221Z,2.55
2022-07-30T21:17:50.117Z,2.40
2022-07-30T21:20:27.683Z,2.00
2022-07-30T21:22:56.281Z,2.30
2022-07-30T21:25:32.382Z,2.55
2022-07-30T21:28:02.769Z,2.58
2022-07-30T21:30:32.844Z,2.70
2022-07-30T21:33:00.307Z,2.33
2022-07-30T21:35:31.643Z,2.38
2022-07-30T21:37:59.529Z,2.38
2022-07-30T21:40:27.789Z,2.50
2022-07-30T21:42:56.162Z,2.65
2022-07-30T21:45:23.781Z,2.22
2022-07-30T21:47:54.760Z,2.30
2022-07-30T21:50:21.925Z,2.55
2022-07-30T21:52:49.033Z,2.35
2022-07-30T21:55:16.227Z,2.40
2022-07-30T21:57:43.862Z,2.20
2022-07-30T22:00:21.910Z,2.50
2022-07-30T22:02:53.109Z,2.33
2022-07-30T22:05:38.354Z,2.40
2022-07-30T22:08:07.711Z,2.58
2022-07-30T22:10:36.008Z,2.55
2022-07-30T22:13:03.847Z,2.53
2022-07-30T22:15:32.047Z,2.30
2022-07-30T22:18:00.981Z,2.40
2022-07-30T22:20:29.497Z,2.55
2022-07-30T22:22:58.622Z,2.20
2022-07-30T22:25:41.658Z,2.53
2022-07-30T22:28:12.237Z,2.55
2022-07-30T22:30:41.543Z,2.75
2022-07-30T22:33:10.025Z,2.22
2022-07-30T22:35:37.438Z,2.53
2022-07-30T22:38:05.443Z,2.40
2022-07-30T22:40:33.168Z,2.40
2022-07-30T22:43:04.101Z,2.60
2022-07-30T22:45:49.031Z,2.60
2022-07-30T22:48:17.657Z,2.35
2022-07-30T22:50:51.880Z,2.60
2022-07-30T22:54:11.716Z,2.75
2022-07-30T22:56:07.348Z,2.33
2022-07-30T22:58:41.490Z,2.45
2022-07-30T23:01:11.045Z,2.75
2022-07-30T23:03:38.220Z,2.42
2022-07-30T23:06:05.377Z,2.40
2022-07-30T23:08:33.665Z,2.47
2022-07-30T23:11:01.099Z,2.70
2022-07-30T23:12:16.804Z,2.22
2022-07-30T23:13:29.251Z,2.50
2022-07-30T23:15:56.324Z,2.80
2022-07-30T23:18:23.835Z,2.80
2022-07-30T23:20:50.975Z,2.45
2022-07-30T23:23:18.141Z,2.40
2022-07-30T23:25:45.239Z,2.83
2022-07-30T23:28:12.682Z,2.83
2022-07-30T23:30:39.770Z,2.60
2022-07-30T23:33:06.817Z,2.47
2022-07-30T23:35:33.979Z,2.58
2022-07-30T23:38:01.220Z,2.58
2022-07-30T23:40:28.492Z,2.70
2022-07-30T23:42:55.754Z,2.55
2022-07-30T23:45:22.830Z,2.63
2022-07-30T23:48:01.966Z,2.67
2022-07-30T23:50:32.503Z,2.55
2022-07-30T23:53:00.717Z,2.60
2022-07-30T23:55:28.419Z,2.40
2022-07-30T23:57:56.192Z,2.40
